createdAt,value
2017-12-14T00:00:31.626Z,6.17
2017-12-14T00:03:00.611Z,5.07
2017-12-14T00:05:29.985Z,3.77
2017-12-14T00:07:59.757Z,2.97
2017-12-14T00:10:34.528Z,3.10
2017-12-14T00:13:04.309Z,2.83
2017-12-14T00:15:33.724Z,2.00
2017-12-14T00:18:02.809Z,2.63
2017-12-14T00:20:32.734Z,1.77
2017-12-14T00:23:02.469Z,1.77
2017-12-14T00:25:31.452Z,1.40
2017-12-14T00:28:01.233Z,1.00
2017-12-14T00:30:30.217Z,0.93
2017-12-14T00:32:59.261Z,0.73
2017-12-14T00:35:28.262Z,0.93
2017-12-14T00:37:57.631Z,1.60
2017-12-14T00:40:26.647Z,0.90
2017-12-14T00:42:56.416Z,1.63
2017-12-14T00:45:25.388Z,1.60
2017-12-14T00:47:54.366Z,1.50
2017-12-14T00:50:23.360Z,1.80
2017-12-14T00:52:52.757Z,1.17
2017-12-14T00:55:21.751Z,1.80
2017-12-14T00:57:51.488Z,1.97
2017-12-14T01:00:21.434Z,1.97
2017-12-14T01:02:51.195Z,1.47
2017-12-14T01:05:20.163Z,1.13
2017-12-14T01:07:49.538Z,0.97
2017-12-14T01:10:19.936Z,1.30
2017-12-14T01:12:48.925Z,1.27
2017-12-14T01:15:17.925Z,1.10
2017-12-14T01:17:46.936Z,0.87
2017-12-14T01:20:15.922Z,1.90
2017-12-14T01:22:44.901Z,1.40
2017-12-14T01:25:13.889Z,0.83
2017-12-14T01:27:42.886Z,1.00
2017-12-14T01:30:12.684Z,0.90
2017-12-14T01:32:42.412Z,1.07
2017-12-14T01:35:12.082Z,0.90
2017-12-14T01:37:41.578Z,0.90
2017-12-14T01:40:10.541Z,1.10
2017-12-14T01:42:39.502Z,0.80
2017-12-14T01:45:08.520Z,0.67
2017-12-14T01:47:37.918Z,1.00
2017-12-14T01:50:07.694Z,0.67
2017-12-14T01:52:36.727Z,0.97
2017-12-14T01:55:06.453Z,1.10
2017-12-14T01:57:35.525Z,1.10
2017-12-14T02:00:05.266Z,1.10
2017-12-14T02:02:34.651Z,1.57
2017-12-14T02:05:04.038Z,1.23
2017-12-14T02:07:32.998Z,2.07
2017-12-14T02:10:02.783Z,1.63
2017-12-14T02:12:31.753Z,2.90
2017-12-14T02:15:00.780Z,2.30
2017-12-14T02:17:29.777Z,2.50
2017-12-14T02:19:59.528Z,1.90
2017-12-14T02:22:29.340Z,2.33
2017-12-14T02:24:58.376Z,2.67
2017-12-14T02:27:27.748Z,2.57
2017-12-14T02:29:57.532Z,2.27
2017-12-14T02:32:26.455Z,2.13
2017-12-14T02:34:56.273Z,2.37
2017-12-14T02:37:25.639Z,2.73
2017-12-14T02:39:54.653Z,2.47
2017-12-14T02:42:24.055Z,2.60
2017-12-14T02:44:53.467Z,2.80
2017-12-14T02:47:22.458Z,3.60
2017-12-14T02:49:51.458Z,3.30
2017-12-14T02:52:20.814Z,2.60
2017-12-14T02:54:49.823Z,2.13
2017-12-14T02:57:18.788Z,2.33
2017-12-14T02:59:47.798Z,2.80
2017-12-14T03:02:17.613Z,2.93
2017-12-14T03:04:46.628Z,3.20
2017-12-14T03:07:16.503Z,3.27
2017-12-14T03:09:45.539Z,3.37
2017-12-14T03:12:15.347Z,3.23
2017-12-14T03:14:45.221Z,2.70
2017-12-14T03:17:15.034Z,2.77
2017-12-14T03:19:44.060Z,2.70
2017-12-14T03:22:13.161Z,3.30
2017-12-14T03:24:42.555Z,2.40
2017-12-14T03:27:12.027Z,3.63
2017-12-14T03:29:41.747Z,2.80
2017-12-14T03:32:10.805Z,3.50
2017-12-14T03:34:40.227Z,3.20
2017-12-14T03:37:09.828Z,3.17
2017-12-14T03:39:38.913Z,2.60
2017-12-14T03:42:07.892Z,2.97
2017-12-14T03:44:37.408Z,4.00
2017-12-14T03:47:06.482Z,2.27
2017-12-14T03:49:35.442Z,3.43
2017-12-14T03:52:04.505Z,3.00
2017-12-14T03:54:33.516Z,3.10
2017-12-14T03:57:02.482Z,2.73
2017-12-14T03:59:31.520Z,2.60
2017-12-14T04:02:01.326Z,4.03
2017-12-14T04:04:30.804Z,3.57
2017-12-14T04:07:00.693Z,2.77
2017-12-14T04:09:29.684Z,3.03
2017-12-14T04:11:58.676Z,3.83
2017-12-14T04:14:28.093Z,3.50
2017-12-14T04:16:57.116Z,3.70
2017-12-14T04:19:26.539Z,3.50
2017-12-14T04:21:56.266Z,2.80
2017-12-14T04:24:25.671Z,3.30
2017-12-14T04:26:54.686Z,3.07
2017-12-14T04:29:23.673Z,2.77
2017-12-14T04:31:53.417Z,3.20
2017-12-14T04:34:22.843Z,3.40
2017-12-14T04:36:52.615Z,3.67
2017-12-14T04:39:21.592Z,3.53
2017-12-14T04:41:51.367Z,3.27
2017-12-14T04:44:20.776Z,3.10
2017-12-14T04:46:50.536Z,3.60
2017-12-14T04:49:19.513Z,3.40
2017-12-14T04:51:48.572Z,3.13
2017-12-14T04:54:17.586Z,3.47
2017-12-14T04:56:46.536Z,3.00
2017-12-14T04:59:15.943Z,4.30
2017-12-14T05:01:45.702Z,2.73
2017-12-14T05:04:14.669Z,3.30
2017-12-14T05:06:43.672Z,3.50
2017-12-14T05:09:12.657Z,3.90
2017-12-14T05:11:41.623Z,3.00
2017-12-14T05:14:11.550Z,4.10
2017-12-14T05:16:40.549Z,2.93
2017-12-14T05:19:09.594Z,2.53
2017-12-14T05:21:38.569Z,3.53
2017-12-14T05:24:08.296Z,2.60
2017-12-14T05:26:37.326Z,4.10
2017-12-14T05:29:07.081Z,2.87
2017-12-14T05:31:36.909Z,3.00
2017-12-14T05:34:06.660Z,3.60
2017-12-14T05:36:36.536Z,3.30
2017-12-14T05:39:05.531Z,2.70
2017-12-14T05:41:34.586Z,3.37
2017-12-14T05:44:03.601Z,3.60
2017-12-14T05:46:32.614Z,3.73
2017-12-14T05:49:01.628Z,3.60
2017-12-14T05:51:31.415Z,3.83
2017-12-14T05:54:00.399Z,4.60
2017-12-14T05:56:29.374Z,3.80
2017-12-14T05:58:58.459Z,3.10
2017-12-14T06:01:27.423Z,5.27
2017-12-14T06:03:56.515Z,4.70
2017-12-14T06:06:26.275Z,4.43
2017-12-14T06:08:55.335Z,4.67
2017-12-14T06:11:24.328Z,5.80
2017-12-14T06:13:53.356Z,6.23
2017-12-14T06:16:22.336Z,6.37
2017-12-14T06:18:51.791Z,6.33
2017-12-14T06:21:20.744Z,6.50
2017-12-14T06:23:50.475Z,5.77
2017-12-14T06:26:19.475Z,6.10
2017-12-14T06:28:48.896Z,7.13
2017-12-14T06:31:17.915Z,6.00
2017-12-14T06:33:47.652Z,6.70
2017-12-14T06:36:17.745Z,7.70
2017-12-14T06:38:47.524Z,8.53
2017-12-14T06:41:17.424Z,7.90
2017-12-14T06:43:46.413Z,6.70
2017-12-14T06:46:15.873Z,7.83
2017-12-14T06:48:44.847Z,8.43
2017-12-14T06:51:13.823Z,6.90
2017-12-14T06:53:42.820Z,8.40
2017-12-14T06:56:12.550Z,9.33
2017-12-14T06:58:41.530Z,8.23
2017-12-14T07:01:10.518Z,6.90
2017-12-14T07:03:39.478Z,8.17
2017-12-14T07:06:08.594Z,7.10
2017-12-14T07:08:38.356Z,7.43
2017-12-14T07:11:07.381Z,7.67
2017-12-14T07:13:36.362Z,7.20
2017-12-14T07:16:05.817Z,8.07
2017-12-14T07:18:34.960Z,7.27
2017-12-14T07:21:03.937Z,7.80
2017-12-14T07:23:32.923Z,6.20
2017-12-14T07:26:02.665Z,6.00
2017-12-14T07:28:32.410Z,7.07
2017-12-14T07:31:01.534Z,5.97
2017-12-14T07:33:30.984Z,5.37
2017-12-14T07:36:00.811Z,6.47
2017-12-14T07:38:29.783Z,7.70
2017-12-14T07:40:59.513Z,6.30
2017-12-14T07:43:29.042Z,7.10
2017-12-14T07:49:06.422Z,4.73
2017-12-14T07:51:35.431Z,5.40
2017-12-14T07:54:04.385Z,4.90
2017-12-14T07:56:33.354Z,5.20
2017-12-14T07:59:02.359Z,4.63
2017-12-14T08:01:31.313Z,6.17
2017-12-14T08:04:00.697Z,5.07
2017-12-14T08:06:30.041Z,4.30
2017-12-14T08:08:59.846Z,3.77
2017-12-14T08:11:28.784Z,3.60
2017-12-14T08:13:58.567Z,3.63
2017-12-14T08:16:27.908Z,2.90
2017-12-14T08:18:57.333Z,3.10
2017-12-14T08:21:27.096Z,9.50
2017-12-14T08:23:56.894Z,3.07
2017-12-14T08:26:25.900Z,2.83
2017-12-14T08:28:54.924Z,2.90
2017-12-14T08:31:24.692Z,3.70
2017-12-14T08:33:53.699Z,4.03
2017-12-14T08:36:22.627Z,4.17
2017-12-14T08:38:51.622Z,4.10
2017-12-14T08:41:20.587Z,3.50
2017-12-14T08:43:50.340Z,2.37
2017-12-14T08:46:19.302Z,3.80
2017-12-14T08:48:48.676Z,4.20
2017-12-14T08:51:18.411Z,3.23
2017-12-14T08:53:47.412Z,4.37
2017-12-14T08:56:16.776Z,4.47
2017-12-14T08:58:46.532Z,6.20
2017-12-14T09:01:15.583Z,10.47
2017-12-14T09:03:44.536Z,4.27
2017-12-14T09:06:13.502Z,5.13
2017-12-14T09:08:42.479Z,4.40
2017-12-14T09:11:11.507Z,3.97
2017-12-14T09:13:40.861Z,5.57
2017-12-14T09:16:10.620Z,5.20
2017-12-14T09:18:39.601Z,4.40
2017-12-14T09:21:08.633Z,4.77
2017-12-14T09:23:38.513Z,10.27
2017-12-14T09:26:07.527Z,5.00
2017-12-14T09:28:37.297Z,5.10
2017-12-14T09:31:06.262Z,5.23
2017-12-14T09:33:36.051Z,5.63
2017-12-14T09:36:05.406Z,5.47
2017-12-14T09:38:34.860Z,5.43
2017-12-14T09:41:03.828Z,4.77
2017-12-14T09:43:33.573Z,6.77
2017-12-14T09:46:03.316Z,6.63
2017-12-14T09:48:33.417Z,5.27
2017-12-14T09:51:03.152Z,6.17
2017-12-14T09:53:32.845Z,6.67
2017-12-14T09:56:01.847Z,6.83
2017-12-14T09:58:30.887Z,7.00
2017-12-14T10:00:59.868Z,7.80
2017-12-14T10:03:28.877Z,5.73
2017-12-14T10:05:57.852Z,7.57
2017-12-14T10:08:26.851Z,7.60
2017-12-14T10:10:57.305Z,7.17
2017-12-14T10:13:27.043Z,7.37
2017-12-14T10:15:56.430Z,8.80
2017-12-14T10:18:25.391Z,8.50
2017-12-14T10:20:54.387Z,6.33
2017-12-14T10:23:23.444Z,6.53
2017-12-14T10:25:52.904Z,7.43
2017-12-14T10:28:22.308Z,6.40
2017-12-14T10:30:51.655Z,7.40
2017-12-14T10:33:20.682Z,7.40
2017-12-14T10:35:49.649Z,6.83
2017-12-14T10:38:18.667Z,7.87
2017-12-14T10:40:47.656Z,7.10
2017-12-14T10:43:16.661Z,7.17
2017-12-14T10:45:46.414Z,6.80
2017-12-14T10:48:15.395Z,7.03
2017-12-14T10:50:44.359Z,7.00
2017-12-14T10:53:14.129Z,7.10
2017-12-14T10:55:43.488Z,6.07
2017-12-14T10:58:12.502Z,7.60
2017-12-14T11:00:47.056Z,6.60
2017-12-14T11:03:16.094Z,5.67
2017-12-14T11:05:45.522Z,5.90
2017-12-14T11:08:14.594Z,5.67
2017-12-14T11:10:43.562Z,6.37
2017-12-14T11:13:12.685Z,5.80
2017-12-14T11:15:41.644Z,4.73
2017-12-14T11:18:10.663Z,4.83
2017-12-14T11:20:40.392Z,4.50
2017-12-14T11:23:09.389Z,5.03
2017-12-14T11:25:38.352Z,3.80
2017-12-14T11:28:08.118Z,5.10
2017-12-14T11:30:37.478Z,3.90
2017-12-14T11:33:06.437Z,4.67
2017-12-14T11:35:35.455Z,4.00
2017-12-14T11:38:04.814Z,3.67
2017-12-14T11:40:33.769Z,3.40
2017-12-14T11:43:02.861Z,3.77
2017-12-14T11:45:32.597Z,3.60
2017-12-14T11:48:01.542Z,3.47
2017-12-14T11:50:30.554Z,3.70
2017-12-14T11:52:59.909Z,3.77
2017-12-14T11:55:29.650Z,3.83
2017-12-14T11:57:58.972Z,3.60
2017-12-14T12:00:28.718Z,3.50
2017-12-14T12:02:57.708Z,2.87
2017-12-14T12:05:27.441Z,3.30
2017-12-14T12:07:56.433Z,3.47
2017-12-14T12:10:25.805Z,3.43
2017-12-14T12:12:55.525Z,3.20
2017-12-14T12:15:24.536Z,10.47
2017-12-14T12:17:54.273Z,5.60
2017-12-14T12:20:23.716Z,7.03
2017-12-14T12:22:53.575Z,7.80
2017-12-14T12:25:23.447Z,6.30
2017-12-14T12:27:52.854Z,7.70
2017-12-14T12:30:22.606Z,8.43
2017-12-14T12:32:52.382Z,21.00
2017-12-14T12:35:21.392Z,10.67
2017-12-14T12:37:50.425Z,27.37
2017-12-14T12:40:20.260Z,6.10
2017-12-14T12:42:49.246Z,7.37
2017-12-14T12:45:18.392Z,4.80
2017-12-14T12:47:47.368Z,5.23
2017-12-14T12:50:17.416Z,7.57
2017-12-14T12:52:47.093Z,4.13
2017-12-14T12:55:16.488Z,5.23
2017-12-14T12:57:46.173Z,4.83
2017-12-14T13:02:56.556Z,5.83
2017-12-14T13:05:26.299Z,4.70
2017-12-14T13:07:57.003Z,5.60
2017-12-14T13:10:25.992Z,3.30
2017-12-14T13:12:55.793Z,4.40
2017-12-14T13:15:25.541Z,4.97
2017-12-14T13:17:54.656Z,4.27
2017-12-14T13:20:23.936Z,3.10
2017-12-14T13:22:52.906Z,4.27
2017-12-14T13:25:22.343Z,2.60
2017-12-14T13:27:52.118Z,2.90
2017-12-14T13:30:22.316Z,2.50
2017-12-14T13:32:51.257Z,2.47
2017-12-14T13:35:21.027Z,2.10
2017-12-14T13:37:50.166Z,2.73
2017-12-14T13:40:20.589Z,3.10
2017-12-14T13:42:50.340Z,2.60
2017-12-14T13:45:19.316Z,2.87
2017-12-14T13:47:48.290Z,3.30
2017-12-14T13:50:18.282Z,3.67
2017-12-14T13:52:47.681Z,2.73
2017-12-14T13:55:17.458Z,4.33
2017-12-14T13:57:46.844Z,4.20
2017-12-14T14:00:15.849Z,3.90
2017-12-14T14:02:45.528Z,3.70
2017-12-14T14:05:14.884Z,4.43
2017-12-14T14:07:44.660Z,3.50
2017-12-14T14:10:14.035Z,3.87
2017-12-14T14:12:43.496Z,3.47
2017-12-14T14:15:12.510Z,3.77
2017-12-14T14:17:41.540Z,4.20
2017-12-14T14:20:11.303Z,3.60
2017-12-14T14:22:40.361Z,3.57
2017-12-14T14:25:10.172Z,3.40
2017-12-14T14:27:39.952Z,4.03
2017-12-14T14:30:09.822Z,3.80
2017-12-14T14:32:39.180Z,4.20
2017-12-14T14:35:08.992Z,3.80
2017-12-14T14:37:38.728Z,3.50
2017-12-14T14:40:08.525Z,4.63
2017-12-14T14:42:37.902Z,4.70
2017-12-14T14:45:07.725Z,4.00
2017-12-14T14:47:36.766Z,3.40
2017-12-14T14:50:06.709Z,4.70
2017-12-14T14:52:35.691Z,4.10
2017-12-14T14:57:43.831Z,4.43
2017-12-14T15:00:23.981Z,3.97
2017-12-14T15:02:52.941Z,4.37
2017-12-14T15:05:22.921Z,4.20
2017-12-14T15:07:52.291Z,4.50
2017-12-14T15:10:21.295Z,3.87
2017-12-14T15:12:50.686Z,3.73
2017-12-14T15:15:19.782Z,4.50
2017-12-14T15:17:48.751Z,4.60
2017-12-14T15:20:19.273Z,4.50
2017-12-14T15:22:48.273Z,4.10
2017-12-14T15:25:17.265Z,4.53
2017-12-14T15:27:46.282Z,6.07
2017-12-14T15:30:15.601Z,9.07
2017-12-14T15:32:45.922Z,8.57
2017-12-14T15:35:15.310Z,30.43
2017-12-14T15:37:44.810Z,19.80
2017-12-14T15:40:13.821Z,17.53
2017-12-14T15:42:43.071Z,8.47
2017-12-14T15:45:12.196Z,4.90
2017-12-14T15:47:41.576Z,5.17
2017-12-14T15:50:10.559Z,6.50
2017-12-14T15:52:39.582Z,5.33
2017-12-14T15:55:09.369Z,5.57
2017-12-14T15:57:38.390Z,6.03
2017-12-14T16:00:07.431Z,6.20
2017-12-14T16:02:36.558Z,4.37
2017-12-14T16:05:05.568Z,4.97
2017-12-14T16:07:34.571Z,5.40
2017-12-14T16:10:03.956Z,4.63
2017-12-14T16:12:33.324Z,5.20
2017-12-14T16:15:02.320Z,5.23
2017-12-14T16:17:31.679Z,4.40
2017-12-14T16:20:01.437Z,4.80
2017-12-14T16:22:30.442Z,5.00
2017-12-14T16:24:59.437Z,6.60
2017-12-14T16:27:28.438Z,5.07
2017-12-14T16:29:57.819Z,5.37
2017-12-14T16:32:27.900Z,5.33
2017-12-14T16:34:56.929Z,5.50
2017-12-14T16:37:25.937Z,4.77
2017-12-14T16:39:54.949Z,5.10
2017-12-14T16:42:23.941Z,6.43
2017-12-14T16:44:53.713Z,4.57
2017-12-14T16:47:22.740Z,4.97
2017-12-14T16:49:51.712Z,6.53
2017-12-14T16:52:20.751Z,6.77
2017-12-14T16:54:49.779Z,9.87
2017-12-14T16:57:19.585Z,10.53
2017-12-14T16:59:48.954Z,10.17
2017-12-14T17:02:17.944Z,9.50
2017-12-14T17:04:47.041Z,9.17
2017-12-14T17:07:16.117Z,10.53
2017-12-14T17:09:45.924Z,11.47
2017-12-14T17:12:15.691Z,13.93
2017-12-14T17:14:45.534Z,12.93
2017-12-14T17:17:14.526Z,8.97
2017-12-14T17:19:43.553Z,18.00
2017-12-14T17:22:12.532Z,15.10
2017-12-14T17:24:41.950Z,33.50
2017-12-14T17:27:11.737Z,18.47
2017-12-14T17:29:40.796Z,18.17
2017-12-14T17:32:09.806Z,28.67
2017-12-14T17:34:38.781Z,19.50
2017-12-14T17:37:07.799Z,16.93
2017-12-14T17:39:37.586Z,11.50
2017-12-14T17:42:06.599Z,12.60
2017-12-14T17:44:35.606Z,10.10
2017-12-14T17:47:05.041Z,10.63
2017-12-14T17:49:34.085Z,9.00
2017-12-14T17:52:03.159Z,10.50
2017-12-14T17:54:32.938Z,8.20
2017-12-14T17:57:01.999Z,6.90
2017-12-14T17:59:31.007Z,8.43
2017-12-14T18:02:00.809Z,8.80
2017-12-14T18:04:30.676Z,9.47
2017-12-14T18:06:59.730Z,7.90
2017-12-14T18:09:28.888Z,8.17
2017-12-14T18:11:58.702Z,7.60
2017-12-14T18:14:27.826Z,7.60
2017-12-14T18:16:57.633Z,8.43
2017-12-14T18:19:27.413Z,7.40
2017-12-14T18:21:56.442Z,8.27
2017-12-14T18:24:25.815Z,6.63
2017-12-14T18:26:54.897Z,7.87
2017-12-14T18:29:24.561Z,9.23
2017-12-14T18:31:54.462Z,8.30
2017-12-14T18:34:24.317Z,7.70
2017-12-14T18:36:53.327Z,10.23
2017-12-14T18:39:22.360Z,10.80
2017-12-14T18:41:52.265Z,11.00
2017-12-14T18:44:21.668Z,11.50
2017-12-14T18:46:51.508Z,8.97
2017-12-14T18:49:20.533Z,11.00
2017-12-14T18:51:49.618Z,12.70
2017-12-14T18:54:18.666Z,11.03
2017-12-14T18:56:48.490Z,12.07
2017-12-14T18:59:17.540Z,11.70
2017-12-14T19:01:47.416Z,11.70
2017-12-14T19:04:16.954Z,11.37
2017-12-14T19:06:45.977Z,13.63
2017-12-14T19:09:15.767Z,12.03
2017-12-14T19:11:44.829Z,12.97
2017-12-14T19:14:14.495Z,11.70
2017-12-14T19:16:59.226Z,13.60
2017-12-14T19:19:28.726Z,12.93
2017-12-14T19:21:57.788Z,14.10
2017-12-14T19:24:26.905Z,13.53
2017-12-14T19:26:56.168Z,13.43
2017-12-14T19:29:25.269Z,14.30
2017-12-14T19:31:54.381Z,14.37
2017-12-14T19:34:23.908Z,12.90
2017-12-14T19:36:53.822Z,13.70
2017-12-14T19:39:22.952Z,14.00
2017-12-14T19:41:52.902Z,14.00
2017-12-14T19:44:22.692Z,12.93
2017-12-14T19:46:51.787Z,12.53
2017-12-14T19:49:20.850Z,13.20
2017-12-14T19:51:50.462Z,15.90
2017-12-14T19:54:21.025Z,13.60
2017-12-14T19:56:50.693Z,14.00
2017-12-14T19:59:20.809Z,13.40
2017-12-14T20:01:51.387Z,15.37
2017-12-14T20:04:21.010Z,13.20
2017-12-14T20:06:53.199Z,14.70
2017-12-14T20:09:23.062Z,14.20
2017-12-14T20:11:52.906Z,13.30
2017-12-14T20:14:22.206Z,13.40
2017-12-14T20:16:51.927Z,12.43
2017-12-14T20:19:21.064Z,14.93
2017-12-14T20:21:50.897Z,14.17
2017-12-14T20:24:20.926Z,13.67
2017-12-14T20:26:50.771Z,14.70
2017-12-14T20:29:19.859Z,11.97
2017-12-14T20:31:49.037Z,14.67
2017-12-14T20:34:18.705Z,13.50
2017-12-14T20:36:48.624Z,14.17
2017-12-14T20:39:19.270Z,14.47
2017-12-14T20:41:48.760Z,13.87
2017-12-14T20:44:18.960Z,13.07
2017-12-14T20:46:49.092Z,14.37
2017-12-14T20:49:19.481Z,13.20
2017-12-14T20:51:49.094Z,13.10
2017-12-14T20:54:18.157Z,13.70
2017-12-14T20:56:47.804Z,13.47
2017-12-14T20:59:16.917Z,13.07
2017-12-14T21:01:47.160Z,14.70
2017-12-14T21:04:17.633Z,14.53
2017-12-14T21:06:46.664Z,14.20
2017-12-14T21:09:16.481Z,14.27
2017-12-14T21:11:45.611Z,13.80
2017-12-14T21:14:14.707Z,14.60
2017-12-14T21:16:43.843Z,14.33
2017-12-14T21:19:13.193Z,14.47
2017-12-14T21:21:43.245Z,13.93
2017-12-14T21:24:12.798Z,13.20
2017-12-14T21:26:42.587Z,12.70
2017-12-14T21:29:11.671Z,13.33
2017-12-14T21:31:40.745Z,14.83
2017-12-14T21:34:10.765Z,13.00
2017-12-14T21:36:40.015Z,12.90
2017-12-14T21:39:09.127Z,13.50
2017-12-14T21:41:38.681Z,13.80
2017-12-14T21:44:08.687Z,12.43
2017-12-14T21:46:37.739Z,14.30
2017-12-14T21:49:06.814Z,14.40
2017-12-14T21:51:36.913Z,14.07
2017-12-14T21:54:05.953Z,13.83
2017-12-14T21:56:34.988Z,15.10
2017-12-14T21:59:04.477Z,14.20
2017-12-14T22:01:33.465Z,13.20
2017-12-14T22:04:02.580Z,13.70
2017-12-14T22:06:32.575Z,13.10
2017-12-14T22:09:01.578Z,13.67
2017-12-14T22:11:30.594Z,14.43
2017-12-14T22:13:59.575Z,11.97
2017-12-14T22:16:28.601Z,12.87
2017-12-14T22:18:57.723Z,13.60
2017-12-14T22:21:27.114Z,13.50
2017-12-14T22:23:56.841Z,14.30
2017-12-14T22:26:25.888Z,13.17
2017-12-14T22:28:54.870Z,12.57
2017-12-14T22:31:23.900Z,12.17
2017-12-14T22:33:52.868Z,13.00
2017-12-14T22:36:22.770Z,11.80
2017-12-14T22:38:52.601Z,12.43
2017-12-14T22:41:22.299Z,12.50
2017-12-14T22:43:52.091Z,12.40
2017-12-14T22:46:21.249Z,13.80
2017-12-14T22:48:50.865Z,13.43
2017-12-14T22:51:20.730Z,11.97
2017-12-14T22:53:50.645Z,13.00
2017-12-14T22:56:19.751Z,13.60
2017-12-14T22:58:49.774Z,15.17
2017-12-14T23:01:18.914Z,15.70
2017-12-14T23:03:48.052Z,13.63
2017-12-14T23:06:17.870Z,13.90
2017-12-14T23:08:47.669Z,14.70
2017-12-14T23:11:17.072Z,13.93
2017-12-14T23:13:46.509Z,14.70
2017-12-14T23:16:15.515Z,13.77
2017-12-14T23:18:44.573Z,12.00
2017-12-14T23:21:14.346Z,12.77
2017-12-14T23:23:43.457Z,13.13
2017-12-14T23:26:13.153Z,13.23
2017-12-14T23:28:42.176Z,12.70
2017-12-14T23:31:12.017Z,13.27
2017-12-14T23:33:41.058Z,12.33
2017-12-14T23:36:10.070Z,12.73
2017-12-14T23:38:39.904Z,13.63
2017-12-14T23:41:09.776Z,13.57
2017-12-14T23:43:38.856Z,12.00
2017-12-14T23:46:08.190Z,13.17
2017-12-14T23:48:37.622Z,14.83
2017-12-14T23:51:06.624Z,17.63
2017-12-14T23:53:35.612Z,13.90
2017-12-14T23:56:04.735Z,13.43
2017-12-14T23:58:33.809Z,12.80
